Terminal Aerodrome Forecast
Issued by NWS

Home | Current Version | Previous Version | Text Only | Print | Product List | Glossary On
Versions: 1 2 3 4 5 6 7 8 9 10 11 12 13 14 15 16 17 18 19 20 21
000
FTUS43 KDTX 281728
TAFMBS
TAF
KMBS 281728Z 2818/2918 21005KT P6SM SCT045 SCT250
     FM282100 22006KT P6SM SCT050 OVC250
     FM290100 20005KT P6SM BKN150 OVC250
     FM290900 26005KT P6SM OVC070 PROB30 2909/2912 5SM -SHRA OVC070=

USA.gov is the U.S. government's official web portal to all federal, state and local government web resources and services.